Time;durP1;ratioP1;P1;durP2;ratioP2;P2;SDS_P1;SDS_P2;PMS_P1;PMS_P2;Temp;Humidity;BMP_temperature;BMP_pressure;BME280_temperature;BME280_humidity;BME280_pressure;Samples;Min_cycle;Max_cycle;Signal;HPM_P1;HPM_P2
2021/07/11 00:01:08;;;;;;;2.20;1.63;;;;;;;15.96;100.00;95893.91;5012718;28;20519;-74
2021/07/11 00:03:34;;;;;;;3.97;1.50;;;;;;;15.94;100.00;95896.66;5012746;28;20460;-75
2021/07/11 00:05:59;;;;;;;2.20;1.33;;;;;;;15.84;100.00;95889.69;5013689;28;20459;-75
2021/07/11 00:08:24;;;;;;;3.83;1.65;;;;;;;15.94;100.00;95881.00;5014070;28;20413;-74
2021/07/11 00:10:51;;;;;;;1.97;1.40;;;;;;;15.93;100.00;95887.16;5013653;28;20433;-75
2021/07/11 00:13:17;;;;;;;1.60;1.20;;;;;;;15.82;100.00;95892.41;5013804;28;20474;-75
2021/07/11 00:15:43;;;;;;;2.03;1.40;;;;;;;15.84;100.00;95889.69;5013527;28;20424;-75
2021/07/11 00:18:11;;;;;;;5.63;1.43;;;;;;;15.76;100.00;95895.56;5012343;28;20786;-74
2021/07/11 00:20:36;;;;;;;1.80;1.30;;;;;;;15.61;100.00;95894.97;5013442;28;20504;-75
2021/07/11 00:23:02;;;;;;;3.30;1.60;;;;;;;15.34;100.00;95894.56;5012332;28;20543;-75
2021/07/11 00:25:27;;;;;;;1.97;1.20;;;;;;;15.44;100.00;95892.91;5012044;28;20436;-74
2021/07/11 00:27:55;;;;;;;2.27;1.60;;;;;;;15.34;100.00;95897.19;5013615;28;20431;-74
2021/07/11 00:30:23;;;;;;;2.70;1.30;;;;;;;15.41;100.00;95893.97;5012845;28;20759;-74
2021/07/11 00:32:49;;;;;;;2.03;1.58;;;;;;;15.46;100.00;95901.41;5013281;28;20416;-74
2021/07/11 00:35:15;;;;;;;2.30;1.63;;;;;;;15.51;100.00;95893.22;5013203;28;20500;-75
2021/07/11 00:37:40;;;;;;;1.60;1.50;;;;;;;15.50;100.00;95892.41;5013368;28;20907;-74
2021/07/11 00:40:08;;;;;;;4.43;1.50;;;;;;;15.57;100.00;95890.94;5012262;28;20508;-75
2021/07/11 00:42:33;;;;;;;1.87;1.43;;;;;;;15.69;100.00;95887.38;5013120;28;20914;-75
2021/07/11 00:45:00;;;;;;;5.03;1.70;;;;;;;15.76;100.00;95889.47;5012056;28;20420;-74
2021/07/11 00:47:25;;;;;;;2.47;1.38;;;;;;;15.72;100.00;95902.81;5013111;28;20770;-75
2021/07/11 00:49:51;;;;;;;4.30;1.57;;;;;;;15.63;100.00;95900.91;5011719;28;20421;-75
2021/07/11 00:52:16;;;;;;;2.63;1.42;;;;;;;15.41;100.00;95911.41;5012860;28;20417;-75
2021/07/11 00:54:42;;;;;;;2.77;1.70;;;;;;;15.37;100.00;95917.81;5011792;28;20439;-74
2021/07/11 00:57:08;;;;;;;2.17;1.57;;;;;;;15.37;100.00;95913.44;5012628;28;20829;-75
2021/07/11 00:59:34;;;;;;;4.20;1.70;;;;;;;15.31;100.00;95905.25;5012768;28;20429;-75
2021/07/11 01:02:08;;;;;;;2.55;1.50;;;;;;;15.25;100.00;95904.78;5011736;28;20535;-75
2021/07/11 01:04:42;;;;;;;2.60;1.50;;;;;;;15.31;100.00;95905.25;5012924;28;20408;-75
2021/07/11 01:07:10;;;;;;;2.65;1.58;;;;;;;15.25;100.00;95915.22;5012698;28;20929;-74
2021/07/11 01:09:41;;;;;;;2.58;1.70;;;;;;;15.30;100.00;95907.03;5012639;28;20429;-75
2021/07/11 01:12:12;;;;;;;1.75;1.42;;;;;;;15.33;100.00;95911.19;5012738;28;20429;-74
2021/07/11 01:14:39;;;;;;;4.25;1.63;;;;;;;15.23;100.00;95911.91;5011440;28;20811;-74
2021/07/11 01:17:09;;;;;;;3.28;1.67;;;;;;;15.34;100.00;95918.88;5012321;28;20898;-74
2021/07/11 01:19:50;;;;;;;4.00;1.40;;;;;;;15.31;100.00;95920.91;5012517;28;20945;-74
2021/07/11 01:22:19;;;;;;;4.15;1.60;;;;;;;15.11;100.00;95922.50;5011132;28;20429;-74
2021/07/11 01:24:50;;;;;;;2.23;1.40;;;;;;;15.11;100.00;95917.28;5011827;28;20409;-74
2021/07/11 01:27:18;;;;;;;2.45;1.52;;;;;;;15.25;100.00;95917.03;5012061;28;20416;-75
2021/07/11 01:29:45;;;;;;;2.58;1.45;;;;;;;15.26;100.00;95923.88;4996253;28;20433;-74
2021/07/11 01:32:11;;;;;;;2.17;1.35;;;;;;;15.32;100.00;95917.38;4992839;28;20426;-74
2021/07/11 01:34:38;;;;;;;2.08;1.30;;;;;;;15.32;100.00;95923.41;4992763;28;20422;-74
2021/07/11 01:37:03;;;;;;;1.73;1.50;;;;;;;15.36;100.00;95922.22;5003473;28;20420;-75
2021/07/11 01:39:30;;;;;;;2.70;1.50;;;;;;;15.41;100.00;95921.84;5006530;28;20826;-75
2021/07/11 01:41:57;;;;;;;3.83;1.50;;;;;;;15.43;100.00;95922.56;5010027;28;20456;-74
2021/07/11 01:44:26;;;;;;;3.72;1.60;;;;;;;15.33;100.00;95924.25;5011996;28;20467;-74
2021/07/11 01:46:51;;;;;;;2.65;1.50;;;;;;;15.27;100.00;95929.94;5011752;28;20425;-75
2021/07/11 01:49:18;;;;;;;2.93;1.40;;;;;;;15.37;100.00;95926.47;5011990;28;20834;-74
2021/07/11 01:51:46;;;;;;;2.00;1.70;;;;;;;15.36;100.00;95918.78;5027124;23;20444;-76
2021/07/11 01:54:12;;;;;;;3.10;1.80;;;;;;;15.44;100.00;95929.44;5011928;28;20498;-76
2021/07/11 01:56:39;;;;;;;1.92;1.40;;;;;;;15.44;100.00;95932.03;5011634;28;20917;-76
2021/07/11 01:59:04;;;;;;;1.60;1.50;;;;;;;15.52;100.00;95928.81;5011765;28;20413;-76
2021/07/11 02:01:31;;;;;;;2.43;1.60;;;;;;;15.38;100.00;95920.28;5010492;28;20427;-76
2021/07/11 02:03:57;;;;;;;3.40;1.60;;;;;;;15.37;100.00;95917.81;5011916;28;20907;-76
2021/07/11 02:06:22;;;;;;;2.90;1.70;;;;;;;15.30;100.00;95912.25;5010076;28;20421;-76
2021/07/11 02:08:48;;;;;;;2.33;1.50;;;;;;;15.33;100.00;95919.03;5003304;28;20776;-76
2021/07/11 02:11:14;;;;;;;2.13;1.60;;;;;;;15.29;100.00;95920.22;4991800;28;20430;-77
2021/07/11 02:13:43;;;;;;;3.50;1.50;;;;;;;15.25;100.00;95909.19;4991973;28;20784;-76
2021/07/11 02:16:13;;;;;;;1.80;1.33;;;;;;;15.23;100.00;95909.28;4990512;28;20426;-76
2021/07/11 02:18:40;;;;;;;2.63;1.50;;;;;;;15.19;100.00;95920.94;4991951;28;20450;-76
2021/07/11 02:21:07;;;;;;;5.32;1.60;;;;;;;15.06;100.00;95922.84;4991737;28;20418;-76
2021/07/11 02:23:34;;;;;;;3.20;1.40;;;;;;;15.13;100.00;95918.81;4991982;28;20442;-76
2021/07/11 02:26:00;;;;;;;2.55;1.83;;;;;;;15.16;100.00;95915.13;4991665;28;20926;-76
2021/07/11 02:28:29;;;;;;;4.57;1.53;;;;;;;15.14;100.00;95924.84;4991776;28;20419;-76
2021/07/11 02:31:00;;;;;;;2.30;1.80;;;;;;;15.03;100.00;95911.81;4991714;28;20504;-76
2021/07/11 02:33:36;;;;;;;1.85;1.60;;;;;;;14.88;100.00;95916.47;4990440;28;20419;-76
2021/07/11 02:36:05;;;;;;;2.72;1.70;;;;;;;14.84;100.00;95920.25;4991463;28;20501;-76
2021/07/11 02:38:43;;;;;;;2.60;1.60;;;;;;;14.98;100.00;95915.63;4991654;28;20411;-76
2021/07/11 02:41:09;;;;;;;1.58;1.48;;;;;;;14.81;100.00;95910.06;4991472;28;20992;-76
2021/07/11 02:43:36;;;;;;;1.90;1.60;;;;;;;15.03;100.00;95919.66;4990305;28;20496;-76
2021/07/11 02:46:02;;;;;;;2.22;1.60;;;;;;;15.14;100.00;95917.03;4989864;28;20462;-76
2021/07/11 02:48:28;;;;;;;2.50;1.60;;;;;;;15.15;100.00;95909.06;4990233;28;20458;-76
2021/07/11 02:50:54;;;;;;;2.05;1.70;;;;;;;15.10;100.00;95915.63;4990085;28;20418;-76
2021/07/11 02:53:22;;;;;;;4.00;1.60;;;;;;;15.06;100.00;95920.25;4989925;28;20430;-76
2021/07/11 02:55:51;;;;;;;2.00;1.50;;;;;;;15.06;100.00;95915.03;4991104;28;20469;-76
2021/07/11 02:58:19;;;;;;;3.50;1.67;;;;;;;15.04;100.00;95916.09;4991326;28;20431;-76
2021/07/11 03:00:47;;;;;;;2.70;1.70;;;;;;;15.15;100.00;95914.28;4991336;28;20431;-76
2021/07/11 03:03:16;;;;;;;5.60;1.60;;;;;;;15.14;100.00;95917.03;4990089;28;20462;-76
2021/07/11 03:05:42;;;;;;;2.65;1.60;;;;;;;15.25;100.00;95912.63;4992257;28;20418;-76
2021/07/11 03:08:07;;;;;;;2.15;1.40;;;;;;;15.28;100.00;95915.94;5002635;28;20421;-76
2021/07/11 03:10:35;;;;;;;2.38;1.73;;;;;;;15.21;100.00;95916.44;5009458;28;20460;-76
2021/07/11 03:13:02;;;;;;;1.70;1.60;;;;;;;15.18;100.00;95913.22;5009454;28;20929;-76
2021/07/11 03:15:28;;;;;;;1.98;1.60;;;;;;;15.24;100.00;95910.97;5010509;28;20496;-76
2021/07/11 03:17:53;;;;;;;2.63;1.77;;;;;;;15.30;100.00;95906.22;5010825;28;20424;-76
2021/07/11 03:20:20;;;;;;;4.78;1.67;;;;;;;15.11;100.00;95907.66;5010707;28;20966;-76
2021/07/11 03:22:46;;;;;;;3.60;1.70;;;;;;;15.14;100.00;95906.59;5007008;28;20432;-76
2021/07/11 03:25:12;;;;;;;2.45;2.13;;;;;;;15.21;100.00;95906.00;5007877;28;20423;-76
2021/07/11 03:27:42;;;;;;;2.80;1.52;;;;;;;15.29;100.00;95915.81;4990052;28;20430;-76
2021/07/11 03:30:10;;;;;;;2.78;1.60;;;;;;;15.30;100.00;95907.03;4995076;28;20479;-76
2021/07/11 03:32:40;;;;;;;2.30;1.60;;;;;;;15.30;100.00;95914.88;5010642;28;20420;-76
2021/07/11 03:35:08;;;;;;;2.75;1.58;;;;;;;15.20;100.00;95914.78;5011021;28;20921;-76
2021/07/11 03:37:36;;;;;;;2.10;1.70;;;;;;;15.09;100.00;95920.00;5010651;28;20909;-76
2021/07/11 03:40:03;;;;;;;2.17;1.73;;;;;;;14.99;100.00;95922.50;5010601;28;20416;-76
2021/07/11 03:42:33;;;;;;;1.92;1.35;;;;;;;14.95;100.00;95928.91;5010633;28;20413;-76
2021/07/11 03:45:01;;;;;;;3.53;1.95;;;;;;;14.91;100.00;95924.06;5002074;28;20426;-76
2021/07/11 03:47:33;;;;;;;2.80;1.75;;;;;;;14.85;100.00;95920.13;4999496;28;20430;-76
2021/07/11 03:50:01;;;;;;;2.45;1.70;;;;;;;14.98;100.00;95920.84;4995996;28;20429;-77
2021/07/11 03:52:29;;;;;;;5.90;2.00;;;;;;;14.85;100.00;95925.34;4995788;28;20509;-77
2021/07/11 03:54:58;;;;;;;2.83;1.90;;;;;;;14.67;100.00;95919.75;4995767;28;20497;-76
2021/07/11 03:57:25;;;;;;;4.60;1.75;;;;;;;14.73;100.00;95931.50;4989691;28;20978;-76
2021/07/11 03:59:51;;;;;;;6.72;1.98;;;;;;;14.65;100.00;95926.88;4990981;28;20418;-76
2021/07/11 04:02:19;;;;;;;2.50;1.80;;;;;;;14.59;100.00;95927.34;4990786;28;20421;-76
2021/07/11 04:04:45;;;;;;;3.50;1.70;;;;;;;14.55;100.00;95925.91;4990893;28;20753;-76
2021/07/11 04:07:11;;;;;;;1.90;1.50;;;;;;;14.51;100.00;95921.88;4993761;28;20425;-76
2021/07/11 04:09:39;;;;;;;3.78;1.88;;;;;;;14.46;100.00;95927.44;4994177;28;20591;-76
2021/07/11 04:12:08;;;;;;;2.15;1.70;;;;;;;14.60;100.00;95926.38;4994542;28;20814;-76
2021/07/11 04:14:33;;;;;;;2.03;1.50;;;;;;;14.60;100.00;95933.38;4993028;28;20434;-76
2021/07/11 04:17:04;;;;;;;4.73;1.90;;;;;;;14.57;100.00;95931.81;4993880;28;20469;-76
2021/07/11 04:19:34;;;;;;;2.22;1.70;;;;;;;14.57;100.00;95926.63;4994107;28;20484;-76
2021/07/11 04:22:01;;;;;;;1.70;1.52;;;;;;;14.53;100.00;95925.19;4993980;28;20880;-76
2021/07/11 04:24:27;;;;;;;3.30;1.70;;;;;;;14.61;100.00;95929.81;4992797;28;20640;-76
2021/07/11 04:26:54;;;;;;;4.63;1.80;;;;;;;14.45;100.00;95930.97;4992654;28;20422;-76
2021/07/11 04:29:20;;;;;;;2.40;1.95;;;;;;;14.54;100.00;95928.66;4992640;28;20465;-76
2021/07/11 04:31:46;;;;;;;2.22;1.55;;;;;;;14.56;100.00;95929.34;4993853;28;20841;-76
2021/07/11 04:34:23;;;;;;;2.47;1.70;;;;;;;14.66;100.00;95923.31;4992361;28;20434;-76
2021/07/11 04:36:50;;;;;;;3.58;1.80;;;;;;;14.55;100.00;95925.91;4993778;28;21019;-76
2021/07/11 04:39:15;;;;;;;2.50;1.63;;;;;;;14.54;100.00;95929.47;4993772;28;20830;-76
2021/07/11 04:41:42;;;;;;;4.20;1.77;;;;;;;14.67;100.00;95929.38;4993693;28;20454;-76
2021/07/11 04:44:08;;;;;;;1.80;1.50;;;;;;;14.75;100.00;95927.81;4992547;28;20908;-76
2021/07/11 04:46:33;;;;;;;6.03;1.98;;;;;;;14.82;100.00;95932.56;4992030;28;20426;-76
2021/07/11 04:48:59;;;;;;;2.33;1.63;;;;;;;14.75;100.00;95922.59;4993435;28;20411;-76
2021/07/11 04:51:24;;;;;;;3.47;1.83;;;;;;;14.76;100.00;95923.47;4993198;28;20442;-76
2021/07/11 04:53:51;;;;;;;3.93;1.70;;;;;;;14.76;100.00;95920.84;4993714;28;20518;-76
2021/07/11 04:56:16;;;;;;;3.17;1.80;;;;;;;14.59;100.00;95921.31;4993171;28;20492;-76
2021/07/11 04:58:42;;;;;;;3.03;1.97;;;;;;;14.56;100.00;95922.34;4992068;28;20434;-76
2021/07/11 05:01:07;;;;;;;3.00;1.80;;;;;;;14.52;100.00;95926.16;4991878;28;20453;-76
2021/07/11 05:03:33;;;;;;;2.10;1.87;;;;;;;14.63;100.00;95922.72;4993289;28;20864;-76
2021/07/11 05:05:58;;;;;;;2.83;1.80;;;;;;;14.76;100.00;95937.31;4991774;28;20422;-76
2021/07/11 05:08:23;;;;;;;3.93;1.73;;;;;;;14.75;100.00;95938.25;4991832;28;20954;-76
2021/07/11 05:10:50;;;;;;;3.43;1.80;;;;;;;14.81;100.00;95941.34;4991763;28;20485;-76
2021/07/11 05:13:15;;;;;;;2.92;1.88;;;;;;;14.93;100.00;95940.41;4993034;28;20934;-75
2021/07/11 05:15:41;;;;;;;3.20;1.80;;;;;;;14.90;100.00;95940.63;4992819;28;20454;-75
2021/07/11 05:18:07;;;;;;;3.90;1.80;;;;;;;14.89;100.00;95945.00;4991890;28;20433;-75
2021/07/11 05:20:32;;;;;;;4.93;2.03;;;;;;;15.01;100.00;95944.06;4991664;28;20951;-75
2021/07/11 05:22:58;;;;;;;2.60;1.90;;;;;;;15.00;100.00;95950.22;4992834;28;20897;-75
2021/07/11 05:25:23;;;;;;;3.07;1.90;;;;;;;14.93;100.00;95956.03;4992671;28;20485;-76
2021/07/11 05:27:50;;;;;;;3.33;2.08;;;;;;;15.01;100.00;95951.88;4993054;28;20414;-76
2021/07/11 05:30:17;;;;;;;3.13;2.00;;;;;;;15.03;100.00;95957.00;4992638;28;20430;-76
2021/07/11 05:32:43;;;;;;;4.80;1.65;;;;;;;15.09;100.00;95964.34;4992773;28;20458;-75
2021/07/11 05:35:09;;;;;;;4.50;2.20;;;;;;;15.09;100.00;95972.19;4994564;28;20454;-75
2021/07/11 05:37:35;;;;;;;2.00;1.70;;;;;;;15.06;100.00;95968.97;5009402;28;20809;-76
2021/07/11 05:40:00;;;;;;;1.92;1.67;;;;;;;15.07;100.00;95968.03;5002599;28;20502;-76
2021/07/11 05:42:25;;;;;;;2.10;1.57;;;;;;;15.26;100.00;95963.03;5010827;28;20932;-76
2021/07/11 05:44:52;;;;;;;3.60;2.00;;;;;;;15.42;100.00;95957.41;5010814;28;20464;-76
2021/07/11 05:47:18;;;;;;;2.30;2.10;;;;;;;15.35;100.00;95961.47;5010439;28;20434;-76
2021/07/11 05:49:43;;;;;;;2.60;2.10;;;;;;;15.54;100.00;95960.88;5010679;28;20438;-76
2021/07/11 05:52:08;;;;;;;2.30;2.05;;;;;;;15.69;100.00;95957.06;5023584;28;20429;-76
2021/07/11 05:54:34;;;;;;;6.07;1.73;;;;;;;15.77;100.00;95951.22;4997246;28;20410;-76
2021/07/11 05:56:59;;;;;;;4.70;1.70;;;;;;;15.86;100.00;95950.47;4991966;28;20415;-76
2021/07/11 05:59:25;;;;;;;2.25;1.98;;;;;;;16.00;100.00;95946.72;4992424;28;20791;-76
2021/07/11 06:01:51;;;;;;;2.40;1.80;;;;;;;16.14;100.00;95952.50;4990710;28;20510;-76
2021/07/11 06:04:17;;;;;;;3.17;2.13;;;;;;;15.95;100.00;95953.16;4992233;28;20418;-77
2021/07/11 06:06:42;;;;;;;2.40;1.90;;;;;;;16.12;100.00;95964.84;4991805;28;20773;-76
2021/07/11 06:09:07;;;;;;;2.38;1.75;;;;;;;16.23;100.00;95965.75;4992098;28;20446;-76
2021/07/11 06:11:33;;;;;;;5.00;2.10;;;;;;;16.34;99.22;95965.69;4991767;28;20946;-76
2021/07/11 06:13:58;;;;;;;2.60;1.90;;;;;;;16.42;99.21;95956.25;4990799;28;20418;-76
2021/07/11 06:16:24;;;;;;;2.00;1.80;;;;;;;16.58;98.66;95957.59;4991515;28;20872;-77
2021/07/11 06:18:50;;;;;;;2.70;1.80;;;;;;;16.66;94.69;95963.84;4992019;28;20477;-76
2021/07/11 06:21:16;;;;;;;2.25;1.83;;;;;;;16.63;94.83;95958.88;4990558;28;20429;-77
2021/07/11 06:23:41;;;;;;;4.37;2.00;;;;;;;16.52;91.62;95953.72;4990581;28;20434;-76
2021/07/11 06:26:06;;;;;;;2.08;1.88;;;;;;;16.62;94.94;95959.84;4992145;28;20415;-77
2021/07/11 06:28:32;;;;;;;3.23;2.00;;;;;;;16.86;95.39;95962.19;4991622;28;20421;-77
2021/07/11 06:30:57;;;;;;;3.80;2.00;;;;;;;17.11;93.26;95963.53;4991479;28;20816;-76
2021/07/11 06:33:23;;;;;;;4.43;2.27;;;;;;;17.25;92.68;95964.97;4992472;28;20548;-77
2021/07/11 06:35:50;;;;;;;3.17;1.97;;;;;;;16.99;90.66;95964.59;4991335;28;20433;-76
2021/07/11 06:38:15;;;;;;;3.30;2.00;;;;;;;17.27;89.34;95963.03;4991803;28;20422;-76
2021/07/11 06:40:41;;;;;;;3.00;1.70;;;;;;;17.35;89.17;95967.63;4991664;28;20406;-77
2021/07/11 06:43:06;;;;;;;1.97;1.77;;;;;;;17.17;89.19;95965.66;4991460;28;20422;-77
2021/07/11 06:45:31;;;;;;;2.47;1.92;;;;;;;16.79;90.37;95961.03;4992029;28;20453;-77
2021/07/11 06:47:57;;;;;;;3.40;2.17;;;;;;;16.76;92.51;95965.69;4991528;28;20887;-76
2021/07/11 06:50:22;;;;;;;3.50;2.17;;;;;;;16.73;92.69;95961.53;4996019;28;20441;-76
2021/07/11 06:52:51;;;;;;;2.08;1.88;;;;;;;16.47;91.50;95971.56;4997228;28;20438;-76
2021/07/11 06:55:17;;;;;;;2.37;1.53;;;;;;;16.54;92.42;95964.03;4992178;28;20502;-77
2021/07/11 06:57:43;;;;;;;3.85;2.10;;;;;;;16.58;91.84;95974.13;4991325;28;20454;-76
2021/07/11 07:00:11;;;;;;;5.07;1.95;;;;;;;16.64;91.76;95970.97;4991834;28;21093;-76
2021/07/11 07:02:38;;;;;;;5.22;1.85;;;;;;;16.42;93.74;95977.16;4990938;28;21385;-76
2021/07/11 07:05:05;;;;;;;4.47;2.05;;;;;;;16.67;93.87;95978.56;4991446;28;20951;-76
2021/07/11 07:07:31;;;;;;;2.00;1.80;;;;;;;16.56;93.18;95977.81;4990206;28;20778;-76
2021/07/11 07:09:58;;;;;;;2.40;1.88;;;;;;;16.63;92.71;95981.56;4991886;28;20454;-77
2021/07/11 07:12:23;;;;;;;5.90;2.17;;;;;;;16.33;93.38;95979.72;4990511;28;20769;-77
2021/07/11 07:14:49;;;;;;;5.33;1.90;;;;;;;16.33;95.10;95983.16;4991398;28;20432;-77
2021/07/11 07:17:14;;;;;;;2.40;1.90;;;;;;;16.50;95.13;95986.16;4990970;28;20410;-77
2021/07/11 07:19:39;;;;;;;2.27;1.73;;;;;;;16.25;89.48;95985.59;4991176;28;20410;-77
2021/07/11 07:22:05;;;;;;;2.57;1.90;;;;;;;16.33;89.64;95984.94;4991360;28;20958;-77
2021/07/11 07:24:31;;;;;;;3.60;1.90;;;;;;;16.52;90.11;95984.25;4990477;28;20506;-76
2021/07/11 07:26:57;;;;;;;2.33;1.73;;;;;;;16.77;88.59;95986.50;4995585;28;21004;-76
2021/07/11 07:29:23;;;;;;;2.20;1.73;;;;;;;17.20;87.96;95993.31;5006157;28;20872;-77
2021/07/11 07:31:49;;;;;;;2.92;1.77;;;;;;;17.23;86.44;95995.69;5010017;28;20507;-76
2021/07/11 07:34:15;;;;;;;4.33;2.00;;;;;;;17.30;85.83;95991.56;5002805;28;20425;-76
2021/07/11 07:36:40;;;;;;;4.25;1.75;;;;;;;17.06;88.05;95997.13;5010316;28;20417;-76
2021/07/11 07:39:06;;;;;;;7.70;1.80;;;;;;;17.22;82.68;95996.66;5010368;28;20471;-76
2021/07/11 07:41:31;;;;;;;3.77;1.90;;;;;;;17.24;81.73;96002.56;5012708;28;20463;-76
2021/07/11 07:43:58;;;;;;;3.90;1.60;;;;;;;17.29;85.00;95989.94;5012612;28;20431;-76
2021/07/11 07:46:24;;;;;;;4.03;1.83;;;;;;;16.90;81.71;95983.69;5012723;28;20416;-76
2021/07/11 07:48:49;;;;;;;2.60;2.00;;;;;;;16.70;83.37;95986.16;5012928;28;20993;-76
2021/07/11 07:51:15;;;;;;;3.20;1.80;;;;;;;16.83;86.80;95990.38;5012493;28;20447;-76
2021/07/11 07:53:40;;;;;;;3.33;2.03;;;;;;;16.66;84.90;95983.94;5027022;23;20453;-75
2021/07/11 07:56:05;;;;;;;2.73;1.83;;;;;;;16.52;87.09;95986.88;5003444;28;20960;-75
2021/07/11 07:58:31;;;;;;;2.53;1.90;;;;;;;16.65;86.08;95993.56;5028309;28;20936;-75
2021/07/11 08:00:58;;;;;;;1.70;1.60;;;;;;;16.67;85.87;95996.06;5012443;28;20417;-76
2021/07/11 08:03:23;;;;;;;3.60;1.92;;;;;;;16.65;84.33;95998.81;5013488;28;20416;-74
2021/07/11 08:05:48;;;;;;;2.83;1.60;;;;;;;16.59;83.56;96004.53;5013230;28;20417;-75
2021/07/11 08:08:14;;;;;;;4.18;1.90;;;;;;;16.78;83.81;95993.41;5012796;28;20432;-75
2021/07/11 08:10:39;;;;;;;2.40;1.70;;;;;;;16.72;86.16;95993.88;5013746;28;20431;-74
2021/07/11 08:13:05;;;;;;;3.67;1.80;;;;;;;16.71;83.09;95997.44;5013095;28;20424;-74
2021/07/11 08:15:32;;;;;;;2.67;1.98;;;;;;;16.55;82.39;96007.53;5013000;28;20515;-75
2021/07/11 08:17:59;;;;;;;2.17;1.80;;;;;;;16.65;84.22;96003.22;5013520;28;20467;-75
2021/07/11 08:20:24;;;;;;;2.35;1.83;;;;;;;16.67;81.98;95994.25;5011889;28;20786;-75
2021/07/11 08:22:51;;;;;;;2.63;1.77;;;;;;;16.72;80.75;95998.28;5007999;28;20412;-74
2021/07/11 08:25:17;;;;;;;2.20;1.67;;;;;;;16.84;83.47;95999.91;5012936;28;20421;-74
2021/07/11 08:27:45;;;;;;;1.90;1.50;;;;;;;16.79;82.35;95997.66;5011745;28;20437;-77
2021/07/11 08:30:12;;;;;;;1.73;1.50;;;;;;;16.88;82.77;96004.75;5011487;28;20436;-78
2021/07/11 08:32:38;;;;;;;3.90;2.10;;;;;;;16.87;83.70;96010.09;5008522;28;20942;-78
2021/07/11 08:35:05;;;;;;;4.00;1.80;;;;;;;16.89;84.71;96011.63;4993178;28;20422;-77
2021/07/11 08:37:31;;;;;;;7.07;1.85;;;;;;;16.97;81.84;96010.97;4993360;28;20419;-78
2021/07/11 08:39:56;;;;;;;3.10;2.10;;;;;;;17.02;82.53;96014.06;5011450;28;20452;-77
2021/07/11 08:42:24;;;;;;;2.00;1.63;;;;;;;17.07;84.63;96014.50;5014867;28;20833;-74
2021/07/11 08:44:51;;;;;;;2.47;1.77;;;;;;;16.96;82.55;96019.78;5014162;28;20917;-74
2021/07/11 08:47:16;;;;;;;2.47;1.70;;;;;;;16.75;84.22;96026.81;5012395;28;20503;-74
2021/07/11 08:49:41;;;;;;;2.73;1.60;;;;;;;16.80;84.16;96015.03;5012559;28;20503;-74
2021/07/11 08:52:08;;;;;;;2.90;1.58;;;;;;;17.03;83.52;96018.31;5011730;28;20487;-74
2021/07/11 08:54:34;;;;;;;4.18;2.20;;;;;;;17.07;84.03;96017.09;5010997;28;20425;-74
2021/07/11 08:57:01;;;;;;;4.70;1.87;;;;;;;17.13;81.89;96013.13;5001699;28;20472;-74
2021/07/11 08:59:28;;;;;;;3.22;1.83;;;;;;;17.15;82.13;96024.31;5001201;28;20413;-73
2021/07/11 09:01:53;;;;;;;3.55;1.95;;;;;;;17.10;80.25;96022.09;5011183;28;20766;-74
2021/07/11 09:04:18;;;;;;;2.33;1.65;;;;;;;17.32;80.39;96022.88;5012807;28;20504;-74
2021/07/11 09:06:46;;;;;;;2.03;1.63;;;;;;;17.52;80.31;96026.38;5010899;28;20421;-74
2021/07/11 09:09:22;;;;;;;2.17;1.70;;;;;;;17.50;80.87;96023.91;5011214;28;20552;-74
2021/07/11 09:11:50;;;;;;;2.35;1.63;;;;;;;17.72;80.57;96022.84;5012427;28;20432;-74
2021/07/11 09:14:17;;;;;;;4.03;1.80;;;;;;;17.86;77.10;96019.06;5006856;28;20471;-74
2021/07/11 09:16:43;;;;;;;2.88;2.08;;;;;;;18.16;77.55;96023.38;5004507;28;20430;-74
2021/07/11 09:19:19;;;;;;;2.63;1.52;;;;;;;18.54;75.97;96011.22;5010806;28;20470;-74
2021/07/11 09:21:50;;;;;;;3.63;1.90;;;;;;;18.30;75.36;96020.34;5000832;28;20430;-74
2021/07/11 09:24:17;;;;;;;2.13;1.70;;;;;;;18.21;74.11;96021.19;5002476;28;20482;-74
2021/07/11 09:26:44;;;;;;;3.55;2.15;;;;;;;18.29;76.60;96017.88;5007504;28;20413;-74
2021/07/11 09:29:09;;;;;;;2.78;1.73;;;;;;;18.21;77.06;96023.00;5011558;28;20421;-74
2021/07/11 09:31:35;;;;;;;2.83;1.85;;;;;;;18.43;76.00;96022.72;5002233;28;20421;-74
2021/07/11 09:34:00;;;;;;;2.47;1.80;;;;;;;18.35;74.61;96020.78;5011845;28;20455;-73
2021/07/11 09:36:27;;;;;;;2.73;1.50;;;;;;;18.49;76.05;96024.75;5009900;28;20444;-73
2021/07/11 09:38:54;;;;;;;3.42;1.90;;;;;;;18.11;78.20;96028.22;4990844;28;20707;-72
2021/07/11 09:41:23;;;;;;;2.85;1.80;;;;;;;18.00;76.50;96020.47;5001807;28;20932;-73
2021/07/11 09:43:49;;;;;;;2.10;1.75;;;;;;;18.08;78.13;96021.44;5003188;28;20424;-73
2021/07/11 09:46:15;;;;;;;3.38;1.80;;;;;;;17.96;75.73;96022.53;5011073;28;20420;-73
2021/07/11 09:48:41;;;;;;;2.15;1.83;;;;;;;18.11;77.83;96022.97;4995743;28;20542;-73
2021/07/11 09:51:18;;;;;;;12.38;2.00;;;;;;;18.13;75.09;96021.88;5002462;28;20538;-73
2021/07/11 09:53:44;;;;;;;3.38;1.75;;;;;;;18.04;75.15;96024.47;4996154;28;20545;-72
2021/07/11 09:56:29;;;;;;;4.03;2.27;;;;;;;18.14;74.62;96030.56;4998177;28;20775;-73
2021/07/11 09:58:55;;;;;;;2.70;1.80;;;;;;;18.40;75.10;96027.41;5008133;28;20467;-73
2021/07/11 10:01:21;;;;;;;1.67;1.58;;;;;;;18.33;76.14;96043.69;4998151;28;20410;-73
2021/07/11 10:03:47;;;;;;;2.03;1.53;;;;;;;18.45;75.56;96038.31;4990893;28;20507;-73
2021/07/11 10:06:12;;;;;;;1.90;1.57;;;;;;;18.23;74.50;96026.28;5001822;28;20851;-73
2021/07/11 10:08:37;;;;;;;2.83;1.87;;;;;;;18.35;73.27;96031.28;5006507;28;20507;-73
2021/07/11 10:11:03;;;;;;;3.03;1.80;;;;;;;18.18;74.32;96034.56;5011083;28;20429;-73
2021/07/11 10:13:30;;;;;;;2.30;1.63;;;;;;;18.35;72.65;96031.28;5010013;28;20985;-73
2021/07/11 10:15:55;;;;;;;4.70;2.20;;;;;;;18.19;74.13;96038.00;4999703;28;20824;-73
2021/07/11 10:18:21;;;;;;;2.30;1.65;;;;;;;18.06;74.69;96040.91;4991317;28;20433;-73
2021/07/11 10:20:54;;;;;;;2.78;1.88;;;;;;;17.81;74.81;96040.44;4996420;28;20421;-73
2021/07/11 10:23:24;;;;;;;2.17;1.73;;;;;;;17.73;78.14;96045.47;5010396;28;20417;-73
2021/07/11 10:25:55;;;;;;;3.53;1.87;;;;;;;17.75;81.29;96038.34;5009217;28;20432;-73
2021/07/11 10:28:25;;;;;;;2.80;1.90;;;;;;;17.90;85.17;96042.22;5009436;28;20456;-73
2021/07/11 10:30:52;;;;;;;2.03;1.80;;;;;;;17.81;82.36;96040.44;4998946;28;20422;-73
2021/07/11 10:33:20;;;;;;;2.80;1.90;;;;;;;17.62;79.10;96038.56;4991098;28;20777;-73
2021/07/11 10:35:51;;;;;;;2.10;1.83;;;;;;;17.63;79.47;96039.38;4990948;28;20995;-73
2021/07/11 10:38:26;;;;;;;3.40;1.80;;;;;;;17.72;79.36;96033.31;4992746;28;20797;-73
2021/07/11 10:40:51;;;;;;;2.58;2.03;;;;;;;17.84;77.90;96034.09;5009266;28;20543;-73
2021/07/11 10:43:17;;;;;;;3.28;1.90;;;;;;;17.78;78.05;96038.06;5010510;28;20872;-73
2021/07/11 10:45:44;;;;;;;3.63;1.93;;;;;;;18.07;78.74;96045.16;5010261;28;20413;-73
2021/07/11 10:48:11;;;;;;;4.20;2.10;;;;;;;17.89;77.05;96034.50;5010416;28;20941;-73
2021/07/11 10:50:41;;;;;;;2.47;1.77;;;;;;;18.30;75.20;96032.63;5002177;28;20989;-73
2021/07/11 10:53:15;;;;;;;1.85;1.65;;;;;;;18.39;74.11;96034.41;5010555;28;20511;-73
2021/07/11 10:55:43;;;;;;;3.13;1.90;;;;;;;18.76;75.57;96031.13;5010852;28;21080;-73
2021/07/11 10:58:13;;;;;;;2.03;1.80;;;;;;;19.01;76.08;96019.19;5011047;28;20419;-73
2021/07/11 11:00:39;;;;;;;2.05;1.75;;;;;;;19.22;74.93;96019.84;5011110;28;20448;-73
2021/07/11 11:03:18;;;;;;;3.95;2.05;;;;;;;19.42;72.37;96020.56;5010869;28;20448;-74
2021/07/11 11:05:45;;;;;;;2.40;1.70;;;;;;;19.54;70.04;96029.09;5009461;28;20952;-74
2021/07/11 11:08:12;;;;;;;2.85;2.10;;;;;;;19.72;70.86;96022.13;5009617;28;20429;-73
2021/07/11 11:10:38;;;;;;;2.08;1.58;;;;;;;19.95;70.10;96021.72;5010943;28;20500;-73
2021/07/11 11:13:12;;;;;;;2.17;1.80;;;;;;;20.45;71.11;96019.44;5009650;28;20496;-74
2021/07/11 11:15:43;;;;;;;3.78;1.77;;;;;;;20.51;67.08;96018.03;5012026;28;20437;-73
2021/07/11 11:18:38;;;;;;;5.07;1.73;;;;;;;20.22;64.33;96018.22;5015367;28;20515;-73
2021/07/11 11:21:07;;;;;;;2.20;1.70;;;;;;;20.39;63.15;96008.66;5014748;28;20419;-76
2021/07/11 11:23:34;;;;;;;2.53;1.50;;;;;;;20.60;61.37;96005.78;5014727;28;20423;-73
2021/07/11 11:26:00;;;;;;;1.70;1.40;;;;;;;20.74;61.75;96007.84;5014609;28;20568;-73
2021/07/11 11:28:31;;;;;;;1.70;1.40;;;;;;;20.69;61.25;96005.69;5014677;28;20416;-73